sensor_id;sensor_type;location;lat;lon;timestamp;P1;durP1;ratioP1;P2;durP2;ratioP2
4676;SDS011;2352;48.180;11.478;2023-05-07T00:00:25;11.30;;;8.93;;
4676;SDS011;2352;48.180;11.478;2023-05-07T00:03:27;9.07;;;8.23;;
4676;SDS011;2352;48.180;11.478;2023-05-07T00:06:31;9.50;;;8.77;;
4676;SDS011;2352;48.180;11.478;2023-05-07T00:09:35;11.37;;;8.33;;
4676;SDS011;2352;48.180;11.478;2023-05-07T00:12:39;8.73;;;7.90;;
4676;SDS011;2352;48.180;11.478;2023-05-07T00:15:42;8.33;;;7.73;;
4676;SDS011;2352;48.180;11.478;2023-05-07T00:18:45;8.23;;;7.53;;
4676;SDS011;2352;48.180;11.478;2023-05-07T00:21:48;6.77;;;6.17;;
4676;SDS011;2352;48.180;11.478;2023-05-07T00:24:51;7.60;;;6.80;;
4676;SDS011;2352;48.180;11.478;2023-05-07T00:27:55;8.37;;;7.57;;
4676;SDS011;2352;48.180;11.478;2023-05-07T00:30:58;7.40;;;6.80;;
4676;SDS011;2352;48.180;11.478;2023-05-07T00:34:01;8.50;;;7.73;;
4676;SDS011;2352;48.180;11.478;2023-05-07T00:37:04;7.37;;;6.87;;
4676;SDS011;2352;48.180;11.478;2023-05-07T00:40:08;7.23;;;6.63;;
4676;SDS011;2352;48.180;11.478;2023-05-07T00:43:13;8.47;;;7.37;;
4676;SDS011;2352;48.180;11.478;2023-05-07T00:46:17;7.33;;;6.83;;
4676;SDS011;2352;48.180;11.478;2023-05-07T00:49:22;9.53;;;7.77;;
4676;SDS011;2352;48.180;11.478;2023-05-07T00:52:29;8.40;;;7.70;;
4676;SDS011;2352;48.180;11.478;2023-05-07T00:55:32;7.67;;;7.10;;
4676;SDS011;2352;48.180;11.478;2023-05-07T00:58:36;8.87;;;8.07;;
4676;SDS011;2352;48.180;11.478;2023-05-07T01:01:40;8.67;;;7.97;;
4676;SDS011;2352;48.180;11.478;2023-05-07T01:04:43;7.67;;;7.07;;
4676;SDS011;2352;48.180;11.478;2023-05-07T01:07:47;7.63;;;7.07;;
4676;SDS011;2352;48.180;11.478;2023-05-07T01:10:51;7.47;;;6.80;;
4676;SDS011;2352;48.180;11.478;2023-05-07T01:13:56;7.90;;;7.40;;
4676;SDS011;2352;48.180;11.478;2023-05-07T01:17:01;7.77;;;7.03;;
4676;SDS011;2352;48.180;11.478;2023-05-07T01:20:04;8.20;;;7.47;;
4676;SDS011;2352;48.180;11.478;2023-05-07T01:23:10;8.67;;;7.87;;
4676;SDS011;2352;48.180;11.478;2023-05-07T01:26:13;8.27;;;7.57;;
4676;SDS011;2352;48.180;11.478;2023-05-07T01:29:17;8.70;;;7.90;;
4676;SDS011;2352;48.180;11.478;2023-05-07T01:32:21;7.70;;;7.07;;
4676;SDS011;2352;48.180;11.478;2023-05-07T01:35:30;7.90;;;7.20;;
4676;SDS011;2352;48.180;11.478;2023-05-07T01:38:39;8.00;;;7.40;;
4676;SDS011;2352;48.180;11.478;2023-05-07T01:41:44;8.23;;;7.43;;
4676;SDS011;2352;48.180;11.478;2023-05-07T01:44:48;8.70;;;7.90;;
4676;SDS011;2352;48.180;11.478;2023-05-07T01:47:51;7.73;;;7.13;;
4676;SDS011;2352;48.180;11.478;2023-05-07T01:50:55;8.60;;;7.90;;
4676;SDS011;2352;48.180;11.478;2023-05-07T01:53:59;8.87;;;7.97;;
4676;SDS011;2352;48.180;11.478;2023-05-07T01:57:02;7.77;;;7.20;;
4676;SDS011;2352;48.180;11.478;2023-05-07T02:00:06;8.93;;;8.13;;
4676;SDS011;2352;48.180;11.478;2023-05-07T02:03:11;8.57;;;7.80;;
4676;SDS011;2352;48.180;11.478;2023-05-07T02:06:15;8.80;;;8.00;;
4676;SDS011;2352;48.180;11.478;2023-05-07T02:09:19;8.20;;;7.50;;
4676;SDS011;2352;48.180;11.478;2023-05-07T02:12:23;7.53;;;7.00;;
4676;SDS011;2352;48.180;11.478;2023-05-07T02:15:26;8.93;;;8.13;;
4676;SDS011;2352;48.180;11.478;2023-05-07T02:18:29;9.03;;;8.23;;
4676;SDS011;2352;48.180;11.478;2023-05-07T02:21:33;8.07;;;7.40;;
4676;SDS011;2352;48.180;11.478;2023-05-07T02:24:37;8.50;;;7.90;;
4676;SDS011;2352;48.180;11.478;2023-05-07T02:27:40;8.13;;;7.33;;
4676;SDS011;2352;48.180;11.478;2023-05-07T02:30:43;8.40;;;7.70;;
4676;SDS011;2352;48.180;11.478;2023-05-07T02:33:46;8.03;;;7.33;;
4676;SDS011;2352;48.180;11.478;2023-05-07T02:36:49;7.77;;;7.17;;
4676;SDS011;2352;48.180;11.478;2023-05-07T02:39:53;7.70;;;7.20;;
4676;SDS011;2352;48.180;11.478;2023-05-07T02:42:56;7.43;;;6.80;;
4676;SDS011;2352;48.180;11.478;2023-05-07T02:46:02;7.33;;;6.80;;
4676;SDS011;2352;48.180;11.478;2023-05-07T02:49:06;8.47;;;6.90;;
4676;SDS011;2352;48.180;11.478;2023-05-07T02:52:09;7.73;;;7.23;;
4676;SDS011;2352;48.180;11.478;2023-05-07T02:55:13;8.13;;;7.53;;
4676;SDS011;2352;48.180;11.478;2023-05-07T02:58:16;7.97;;;7.33;;
4676;SDS011;2352;48.180;11.478;2023-05-07T03:01:19;8.17;;;7.30;;
4676;SDS011;2352;48.180;11.478;2023-05-07T03:04:23;8.10;;;7.40;;
4676;SDS011;2352;48.180;11.478;2023-05-07T03:07:25;10.40;;;7.00;;
4676;SDS011;2352;48.180;11.478;2023-05-07T03:10:30;7.77;;;7.27;;
4676;SDS011;2352;48.180;11.478;2023-05-07T03:13:33;7.73;;;7.13;;
4676;SDS011;2352;48.180;11.478;2023-05-07T03:16:35;7.60;;;7.00;;
4676;SDS011;2352;48.180;11.478;2023-05-07T03:19:40;8.07;;;7.37;;
4676;SDS011;2352;48.180;11.478;2023-05-07T03:22:43;7.53;;;6.83;;
4676;SDS011;2352;48.180;11.478;2023-05-07T03:25:47;8.03;;;7.33;;
4676;SDS011;2352;48.180;11.478;2023-05-07T03:28:50;7.77;;;7.17;;
4676;SDS011;2352;48.180;11.478;2023-05-07T03:31:53;8.07;;;7.40;;
4676;SDS011;2352;48.180;11.478;2023-05-07T03:34:56;7.80;;;7.20;;
4676;SDS011;2352;48.180;11.478;2023-05-07T03:37:59;7.33;;;6.70;;
4676;SDS011;2352;48.180;11.478;2023-05-07T03:41:03;8.03;;;7.53;;
4676;SDS011;2352;48.180;11.478;2023-05-07T03:44:06;8.30;;;7.50;;
4676;SDS011;2352;48.180;11.478;2023-05-07T03:47:09;7.10;;;6.60;;
4676;SDS011;2352;48.180;11.478;2023-05-07T03:50:12;7.27;;;6.77;;
4676;SDS011;2352;48.180;11.478;2023-05-07T03:53:15;8.53;;;7.93;;
4676;SDS011;2352;48.180;11.478;2023-05-07T03:56:19;7.77;;;6.93;;
4676;SDS011;2352;48.180;11.478;2023-05-07T03:59:23;8.23;;;7.63;;
4676;SDS011;2352;48.180;11.478;2023-05-07T04:02:25;8.00;;;7.40;;
4676;SDS011;2352;48.180;11.478;2023-05-07T04:05:29;6.97;;;6.47;;
4676;SDS011;2352;48.180;11.478;2023-05-07T04:08:32;7.50;;;6.90;;
4676;SDS011;2352;48.180;11.478;2023-05-07T04:11:36;8.80;;;7.20;;
4676;SDS011;2352;48.180;11.478;2023-05-07T04:14:41;7.17;;;6.67;;
4676;SDS011;2352;48.180;11.478;2023-05-07T04:17:44;7.60;;;7.00;;
4676;SDS011;2352;48.180;11.478;2023-05-07T04:20:47;8.83;;;8.13;;
4676;SDS011;2352;48.180;11.478;2023-05-07T04:23:50;8.20;;;7.60;;
4676;SDS011;2352;48.180;11.478;2023-05-07T04:26:54;7.67;;;7.07;;
4676;SDS011;2352;48.180;11.478;2023-05-07T04:29:57;8.77;;;8.07;;
4676;SDS011;2352;48.180;11.478;2023-05-07T04:33:01;7.90;;;6.57;;
4676;SDS011;2352;48.180;11.478;2023-05-07T04:36:05;7.57;;;6.97;;
4676;SDS011;2352;48.180;11.478;2023-05-07T04:39:08;9.73;;;8.07;;
4676;SDS011;2352;48.180;11.478;2023-05-07T04:42:15;7.40;;;6.90;;
4676;SDS011;2352;48.180;11.478;2023-05-07T04:45:18;7.93;;;7.20;;
4676;SDS011;2352;48.180;11.478;2023-05-07T04:48:22;8.60;;;8.00;;
4676;SDS011;2352;48.180;11.478;2023-05-07T04:51:25;9.17;;;8.37;;
4676;SDS011;2352;48.180;11.478;2023-05-07T04:54:29;7.40;;;6.90;;
4676;SDS011;2352;48.180;11.478;2023-05-07T04:57:33;7.70;;;6.97;;
4676;SDS011;2352;48.180;11.478;2023-05-07T05:00:36;7.63;;;7.17;;
4676;SDS011;2352;48.180;11.478;2023-05-07T05:03:39;9.17;;;8.30;;
4676;SDS011;2352;48.180;11.478;2023-05-07T05:06:42;8.47;;;7.87;;
4676;SDS011;2352;48.180;11.478;2023-05-07T05:09:45;8.17;;;7.57;;
4676;SDS011;2352;48.180;11.478;2023-05-07T05:12:50;8.60;;;8.00;;
4676;SDS011;2352;48.180;11.478;2023-05-07T05:15:53;9.30;;;8.57;;
4676;SDS011;2352;48.180;11.478;2023-05-07T05:18:56;8.63;;;8.03;;
4676;SDS011;2352;48.180;11.478;2023-05-07T05:21:59;8.60;;;7.90;;
4676;SDS011;2352;48.180;11.478;2023-05-07T05:25:02;7.83;;;7.23;;
4676;SDS011;2352;48.180;11.478;2023-05-07T05:28:07;7.87;;;7.17;;
4676;SDS011;2352;48.180;11.478;2023-05-07T05:31:10;8.77;;;8.20;;
4676;SDS011;2352;48.180;11.478;2023-05-07T05:34:13;7.13;;;6.63;;
4676;SDS011;2352;48.180;11.478;2023-05-07T05:37:16;7.90;;;7.37;;
4676;SDS011;2352;48.180;11.478;2023-05-07T05:40:19;6.80;;;6.30;;
4676;SDS011;2352;48.180;11.478;2023-05-07T05:43:24;6.80;;;6.40;;
4676;SDS011;2352;48.180;11.478;2023-05-07T05:46:26;8.23;;;7.63;;
4676;SDS011;2352;48.180;11.478;2023-05-07T05:49:29;6.93;;;6.43;;
4676;SDS011;2352;48.180;11.478;2023-05-07T05:52:32;7.90;;;7.37;;
4676;SDS011;2352;48.180;11.478;2023-05-07T05:55:35;7.37;;;6.83;;
4676;SDS011;2352;48.180;11.478;2023-05-07T05:58:39;7.43;;;6.73;;
4676;SDS011;2352;48.180;11.478;2023-05-07T06:01:43;9.97;;;7.87;;
4676;SDS011;2352;48.180;11.478;2023-05-07T06:04:46;7.50;;;6.80;;
4676;SDS011;2352;48.180;11.478;2023-05-07T06:07:49;7.07;;;6.00;;
4676;SDS011;2352;48.180;11.478;2023-05-07T06:10:52;6.53;;;6.13;;
4676;SDS011;2352;48.180;11.478;2023-05-07T06:13:57;6.10;;;5.60;;
4676;SDS011;2352;48.180;11.478;2023-05-07T06:17:00;5.80;;;5.40;;
4676;SDS011;2352;48.180;11.478;2023-05-07T06:20:04;6.10;;;5.60;;
4676;SDS011;2352;48.180;11.478;2023-05-07T06:23:08;5.43;;;5.03;;
4676;SDS011;2352;48.180;11.478;2023-05-07T06:26:11;6.33;;;5.87;;
4676;SDS011;2352;48.180;11.478;2023-05-07T06:29:16;5.47;;;5.10;;
4676;SDS011;2352;48.180;11.478;2023-05-07T06:32:19;5.80;;;5.30;;
4676;SDS011;2352;48.180;11.478;2023-05-07T06:35:22;6.20;;;5.83;;
4676;SDS011;2352;48.180;11.478;2023-05-07T06:38:25;5.50;;;5.20;;
4676;SDS011;2352;48.180;11.478;2023-05-07T06:41:29;5.53;;;5.13;;
4676;SDS011;2352;48.180;11.478;2023-05-07T06:44:33;5.10;;;4.80;;
4676;SDS011;2352;48.180;11.478;2023-05-07T06:47:37;4.50;;;4.10;;
4676;SDS011;2352;48.180;11.478;2023-05-07T06:50:41;5.70;;;4.27;;
4676;SDS011;2352;48.180;11.478;2023-05-07T06:53:44;10.60;;;3.77;;
4676;SDS011;2352;48.180;11.478;2023-05-07T06:56:47;3.67;;;3.43;;
4676;SDS011;2352;48.180;11.478;2023-05-07T06:59:52;3.57;;;3.37;;
4676;SDS011;2352;48.180;11.478;2023-05-07T07:02:56;3.90;;;3.60;;
4676;SDS011;2352;48.180;11.478;2023-05-07T07:06:00;3.67;;;3.37;;
4676;SDS011;2352;48.180;11.478;2023-05-07T07:09:04;4.40;;;3.43;;
4676;SDS011;2352;48.180;11.478;2023-05-07T07:12:07;3.43;;;3.17;;
4676;SDS011;2352;48.180;11.478;2023-05-07T07:15:12;2.90;;;2.70;;
4676;SDS011;2352;48.180;11.478;2023-05-07T07:18:16;4.73;;;3.43;;
4676;SDS011;2352;48.180;11.478;2023-05-07T07:21:19;3.27;;;3.07;;
4676;SDS011;2352;48.180;11.478;2023-05-07T07:24:22;3.13;;;2.93;;
4676;SDS011;2352;48.180;11.478;2023-05-07T07:27:26;3.17;;;2.97;;
4676;SDS011;2352;48.180;11.478;2023-05-07T07:30:30;3.10;;;2.80;;
4676;SDS011;2352;48.180;11.478;2023-05-07T07:33:33;3.43;;;2.27;;
4676;SDS011;2352;48.180;11.478;2023-05-07T07:36:37;6.90;;;2.73;;
4676;SDS011;2352;48.180;11.478;2023-05-07T07:39:47;3.00;;;2.80;;
4676;SDS011;2352;48.180;11.478;2023-05-07T07:42:50;3.00;;;2.80;;
4676;SDS011;2352;48.180;11.478;2023-05-07T07:45:54;3.13;;;2.93;;
4676;SDS011;2352;48.180;11.478;2023-05-07T07:48:57;3.10;;;2.90;;
4676;SDS011;2352;48.180;11.478;2023-05-07T07:52:01;3.13;;;2.17;;
4676;SDS011;2352;48.180;11.478;2023-05-07T07:55:04;4.20;;;2.63;;
4676;SDS011;2352;48.180;11.478;2023-05-07T07:58:08;5.85;;;2.83;;
4676;SDS011;2352;48.180;11.478;2023-05-07T08:01:12;4.97;;;2.87;;
4676;SDS011;2352;48.180;11.478;2023-05-07T08:04:15;4.53;;;3.10;;
4676;SDS011;2352;48.180;11.478;2023-05-07T08:07:18;2.87;;;2.77;;
4676;SDS011;2352;48.180;11.478;2023-05-07T08:10:23;7.63;;;2.63;;
4676;SDS011;2352;48.180;11.478;2023-05-07T08:13:26;2.67;;;2.47;;
4676;SDS011;2352;48.180;11.478;2023-05-07T08:16:31;2.33;;;2.20;;
4676;SDS011;2352;48.180;11.478;2023-05-07T08:19:34;3.53;;;2.50;;
4676;SDS011;2352;48.180;11.478;2023-05-07T08:22:37;2.97;;;2.77;;
4676;SDS011;2352;48.180;11.478;2023-05-07T08:25:40;2.53;;;2.38;;
4676;SDS011;2352;48.180;11.478;2023-05-07T08:28:43;3.22;;;2.28;;
4676;SDS011;2352;48.180;11.478;2023-05-07T08:31:48;2.95;;;2.63;;
4676;SDS011;2352;48.180;11.478;2023-05-07T08:34:50;4.93;;;3.63;;
4676;SDS011;2352;48.180;11.478;2023-05-07T08:37:53;3.50;;;2.30;;
4676;SDS011;2352;48.180;11.478;2023-05-07T08:40:56;2.22;;;2.13;;
4676;SDS011;2352;48.180;11.478;2023-05-07T08:43:59;2.05;;;1.95;;
4676;SDS011;2352;48.180;11.478;2023-05-07T08:47:06;2.47;;;2.28;;
4676;SDS011;2352;48.180;11.478;2023-05-07T08:50:10;2.53;;;2.33;;
4676;SDS011;2352;48.180;11.478;2023-05-07T08:53:13;2.80;;;2.60;;
4676;SDS011;2352;48.180;11.478;2023-05-07T08:56:18;3.20;;;3.00;;
4676;SDS011;2352;48.180;11.478;2023-05-07T08:59:23;3.17;;;2.90;;
4676;SDS011;2352;48.180;11.478;2023-05-07T09:02:27;9.35;;;7.47;;
4676;SDS011;2352;48.180;11.478;2023-05-07T09:05:30;4.53;;;4.20;;
4676;SDS011;2352;48.180;11.478;2023-05-07T09:08:33;11.27;;;8.93;;
4676;SDS011;2352;48.180;11.478;2023-05-07T09:11:37;5.35;;;5.03;;
4676;SDS011;2352;48.180;11.478;2023-05-07T09:14:40;3.80;;;3.28;;
4676;SDS011;2352;48.180;11.478;2023-05-07T09:17:44;4.30;;;3.90;;
4676;SDS011;2352;48.180;11.478;2023-05-07T09:20:47;3.60;;;3.30;;
4676;SDS011;2352;48.180;11.478;2023-05-07T09:23:51;3.20;;;2.88;;
4676;SDS011;2352;48.180;11.478;2023-05-07T09:26:54;3.13;;;2.28;;
4676;SDS011;2352;48.180;11.478;2023-05-07T09:30:02;2.35;;;2.15;;
4676;SDS011;2352;48.180;11.478;2023-05-07T09:33:08;2.38;;;2.20;;
4676;SDS011;2352;48.180;11.478;2023-05-07T09:36:11;2.70;;;2.50;;
4676;SDS011;2352;48.180;11.478;2023-05-07T09:39:14;1.98;;;1.88;;
4676;SDS011;2352;48.180;11.478;2023-05-07T09:42:22;2.33;;;2.03;;
4676;SDS011;2352;48.180;11.478;2023-05-07T09:45:25;2.30;;;2.03;;
4676;SDS011;2352;48.180;11.478;2023-05-07T09:48:30;1.88;;;1.77;;
4676;SDS011;2352;48.180;11.478;2023-05-07T09:51:38;2.38;;;2.17;;
4676;SDS011;2352;48.180;11.478;2023-05-07T09:54:45;3.95;;;2.08;;
4676;SDS011;2352;48.180;11.478;2023-05-07T09:57:51;1.75;;;1.60;;
4676;SDS011;2352;48.180;11.478;2023-05-07T10:00:55;2.45;;;1.60;;
4676;SDS011;2352;48.180;11.478;2023-05-07T10:04:01;3.00;;;2.00;;
4676;SDS011;2352;48.180;11.478;2023-05-07T10:07:05;1.40;;;1.30;;
4676;SDS011;2352;48.180;11.478;2023-05-07T10:10:09;2.20;;;1.75;;
4676;SDS011;2352;48.180;11.478;2023-05-07T10:13:13;1.90;;;1.58;;
4676;SDS011;2352;48.180;11.478;2023-05-07T10:16:16;1.35;;;1.25;;
4676;SDS011;2352;48.180;11.478;2023-05-07T10:19:21;2.70;;;1.45;;
4676;SDS011;2352;48.180;11.478;2023-05-07T10:22:27;1.75;;;1.65;;
4676;SDS011;2352;48.180;11.478;2023-05-07T10:25:32;1.65;;;1.52;;
4676;SDS011;2352;48.180;11.478;2023-05-07T10:28:36;2.40;;;1.40;;
4676;SDS011;2352;48.180;11.478;2023-05-07T10:31:46;1.88;;;1.77;;
4676;SDS011;2352;48.180;11.478;2023-05-07T10:34:58;2.03;;;1.70;;
4676;SDS011;2352;48.180;11.478;2023-05-07T10:38:04;2.72;;;2.53;;
4676;SDS011;2352;48.180;11.478;2023-05-07T10:41:08;1.77;;;1.67;;
4676;SDS011;2352;48.180;11.478;2023-05-07T10:44:11;1.67;;;1.58;;
4676;SDS011;2352;48.180;11.478;2023-05-07T10:47:26;2.28;;;2.13;;
4676;SDS011;2352;48.180;11.478;2023-05-07T10:50:31;1.45;;;1.13;;
4676;SDS011;2352;48.180;11.478;2023-05-07T10:53:34;2.00;;;1.38;;
4676;SDS011;2352;48.180;11.478;2023-05-07T10:56:37;2.35;;;1.52;;
4676;SDS011;2352;48.180;11.478;2023-05-07T10:59:41;1.85;;;1.75;;
4676;SDS011;2352;48.180;11.478;2023-05-07T11:06:12;3.33;;;2.25;;
4676;SDS011;2352;48.180;11.478;2023-05-07T11:09:16;2.15;;;1.92;;
4676;SDS011;2352;48.180;11.478;2023-05-07T11:15:53;1.85;;;1.75;;
4676;SDS011;2352;48.180;11.478;2023-05-07T11:18:56;1.67;;;1.58;;
4676;SDS011;2352;48.180;11.478;2023-05-07T11:22:00;1.83;;;1.73;;
4676;SDS011;2352;48.180;11.478;2023-05-07T11:25:03;3.08;;;2.13;;
4676;SDS011;2352;48.180;11.478;2023-05-07T11:28:07;1.90;;;1.80;;
4676;SDS011;2352;48.180;11.478;2023-05-07T11:31:12;2.35;;;2.22;;
4676;SDS011;2352;48.180;11.478;2023-05-07T11:34:20;2.83;;;2.63;;
4676;SDS011;2352;48.180;11.478;2023-05-07T11:37:25;1.73;;;1.60;;
4676;SDS011;2352;48.180;11.478;2023-05-07T11:40:31;1.75;;;1.63;;
4676;SDS011;2352;48.180;11.478;2023-05-07T11:43:34;2.20;;;2.10;;
4676;SDS011;2352;48.180;11.478;2023-05-07T11:46:37;2.03;;;1.90;;
4676;SDS011;2352;48.180;11.478;2023-05-07T11:49:45;2.30;;;2.08;;
4676;SDS011;2352;48.180;11.478;2023-05-07T11:52:51;2.38;;;2.17;;
4676;SDS011;2352;48.180;11.478;2023-05-07T11:55:54;2.30;;;2.08;;
4676;SDS011;2352;48.180;11.478;2023-05-07T11:58:57;1.85;;;1.73;;
4676;SDS011;2352;48.180;11.478;2023-05-07T12:02:00;1.80;;;1.70;;
4676;SDS011;2352;48.180;11.478;2023-05-07T12:05:04;2.80;;;2.03;;
4676;SDS011;2352;48.180;11.478;2023-05-07T12:08:09;4.00;;;2.42;;
4676;SDS011;2352;48.180;11.478;2023-05-07T12:11:21;1.92;;;1.73;;
4676;SDS011;2352;48.180;11.478;2023-05-07T12:14:27;1.52;;;1.42;;
4676;SDS011;2352;48.180;11.478;2023-05-07T12:17:30;4.00;;;2.20;;
4676;SDS011;2352;48.180;11.478;2023-05-07T12:20:34;1.83;;;1.73;;
4676;SDS011;2352;48.180;11.478;2023-05-07T12:23:39;1.73;;;1.50;;
4676;SDS011;2352;48.180;11.478;2023-05-07T12:26:43;1.27;;;1.17;;
4676;SDS011;2352;48.180;11.478;2023-05-07T12:29:46;2.13;;;1.85;;
4676;SDS011;2352;48.180;11.478;2023-05-07T12:32:52;2.05;;;1.45;;
4676;SDS011;2352;48.180;11.478;2023-05-07T12:35:55;1.33;;;1.23;;
4676;SDS011;2352;48.180;11.478;2023-05-07T12:39:00;2.33;;;1.70;;
4676;SDS011;2352;48.180;11.478;2023-05-07T12:42:04;5.85;;;5.35;;
4676;SDS011;2352;48.180;11.478;2023-05-07T12:45:07;5.22;;;4.72;;
4676;SDS011;2352;48.180;11.478;2023-05-07T12:48:11;4.93;;;4.10;;
4676;SDS011;2352;48.180;11.478;2023-05-07T12:51:15;9.48;;;7.32;;
4676;SDS011;2352;48.180;11.478;2023-05-07T12:54:28;4.45;;;4.05;;
4676;SDS011;2352;48.180;11.478;2023-05-07T12:57:37;12.65;;;11.38;;
4676;SDS011;2352;48.180;11.478;2023-05-07T13:00:40;3.00;;;2.70;;
4676;SDS011;2352;48.180;11.478;2023-05-07T13:03:47;4.65;;;1.75;;
4676;SDS011;2352;48.180;11.478;2023-05-07T13:06:51;1.80;;;1.67;;
4676;SDS011;2352;48.180;11.478;2023-05-07T13:09:56;5.03;;;2.17;;
4676;SDS011;2352;48.180;11.478;2023-05-07T13:12:59;3.22;;;2.92;;
4676;SDS011;2352;48.180;11.478;2023-05-07T13:16:03;1.30;;;1.20;;
4676;SDS011;2352;48.180;11.478;2023-05-07T13:19:07;2.45;;;2.25;;
4676;SDS011;2352;48.180;11.478;2023-05-07T13:22:10;1.30;;;1.13;;
4676;SDS011;2352;48.180;11.478;2023-05-07T13:25:14;2.70;;;2.30;;
4676;SDS011;2352;48.180;11.478;2023-05-07T13:28:17;2.35;;;1.33;;
4676;SDS011;2352;48.180;11.478;2023-05-07T13:31:21;1.65;;;1.55;;
4676;SDS011;2352;48.180;11.478;2023-05-07T13:34:24;1.92;;;1.83;;
4676;SDS011;2352;48.180;11.478;2023-05-07T13:37:28;2.22;;;1.95;;
4676;SDS011;2352;48.180;11.478;2023-05-07T13:40:33;1.60;;;1.50;;
4676;SDS011;2352;48.180;11.478;2023-05-07T13:43:36;2.55;;;1.85;;
4676;SDS011;2352;48.180;11.478;2023-05-07T13:46:39;1.83;;;1.70;;
4676;SDS011;2352;48.180;11.478;2023-05-07T13:49:42;1.73;;;1.63;;
4676;SDS011;2352;48.180;11.478;2023-05-07T13:52:45;1.75;;;1.60;;
4676;SDS011;2352;48.180;11.478;2023-05-07T13:55:53;2.03;;;1.63;;
4676;SDS011;2352;48.180;11.478;2023-05-07T13:58:56;2.20;;;2.10;;
4676;SDS011;2352;48.180;11.478;2023-05-07T14:02:01;2.38;;;2.00;;
4676;SDS011;2352;48.180;11.478;2023-05-07T14:05:04;2.30;;;2.20;;
4676;SDS011;2352;48.180;11.478;2023-05-07T14:08:08;2.35;;;2.15;;
4676;SDS011;2352;48.180;11.478;2023-05-07T14:11:13;1.73;;;1.63;;
4676;SDS011;2352;48.180;11.478;2023-05-07T14:14:16;2.17;;;1.90;;
4676;SDS011;2352;48.180;11.478;2023-05-07T14:17:19;5.18;;;4.68;;
4676;SDS011;2352;48.180;11.478;2023-05-07T14:20:24;10.35;;;9.65;;
4676;SDS011;2352;48.180;11.478;2023-05-07T14:23:28;3.40;;;3.10;;
4676;SDS011;2352;48.180;11.478;2023-05-07T14:26:32;5.10;;;4.60;;
4676;SDS011;2352;48.180;11.478;2023-05-07T14:29:35;2.45;;;2.25;;
4676;SDS011;2352;48.180;11.478;2023-05-07T14:32:38;2.90;;;2.03;;
4676;SDS011;2352;48.180;11.478;2023-05-07T14:35:41;2.55;;;2.35;;
4676;SDS011;2352;48.180;11.478;2023-05-07T14:38:48;2.42;;;2.22;;
4676;SDS011;2352;48.180;11.478;2023-05-07T14:41:52;2.40;;;2.20;;
4676;SDS011;2352;48.180;11.478;2023-05-07T14:44:57;2.58;;;2.38;;
4676;SDS011;2352;48.180;11.478;2023-05-07T14:48:00;2.60;;;2.40;;
4676;SDS011;2352;48.180;11.478;2023-05-07T14:51:03;2.30;;;2.10;;
4676;SDS011;2352;48.180;11.478;2023-05-07T14:54:07;2.38;;;2.17;;
4676;SDS011;2352;48.180;11.478;2023-05-07T14:57:13;2.60;;;2.03;;
4676;SDS011;2352;48.180;11.478;2023-05-07T15:00:17;2.45;;;2.10;;
4676;SDS011;2352;48.180;11.478;2023-05-07T15:03:20;1.88;;;1.77;;
4676;SDS011;2352;48.180;11.478;2023-05-07T15:06:24;1.85;;;1.75;;
4676;SDS011;2352;48.180;11.478;2023-05-07T15:09:28;2.40;;;1.80;;
4676;SDS011;2352;48.180;11.478;2023-05-07T15:12:33;3.05;;;1.92;;
4676;SDS011;2352;48.180;11.478;2023-05-07T15:15:36;1.63;;;1.52;;
4676;SDS011;2352;48.180;11.478;2023-05-07T15:18:40;1.90;;;1.73;;
4676;SDS011;2352;48.180;11.478;2023-05-07T15:21:43;2.58;;;1.65;;
4676;SDS011;2352;48.180;11.478;2023-05-07T15:24:46;3.15;;;1.63;;
4676;SDS011;2352;48.180;11.478;2023-05-07T15:27:50;1.70;;;1.60;;
4676;SDS011;2352;48.180;11.478;2023-05-07T15:30:53;4.95;;;1.92;;
4676;SDS011;2352;48.180;11.478;2023-05-07T15:33:57;1.92;;;1.70;;
4676;SDS011;2352;48.180;11.478;2023-05-07T15:37:00;1.55;;;1.45;;
4676;SDS011;2352;48.180;11.478;2023-05-07T15:40:03;1.60;;;1.50;;
4676;SDS011;2352;48.180;11.478;2023-05-07T15:43:09;1.63;;;1.52;;
4676;SDS011;2352;48.180;11.478;2023-05-07T15:46:17;1.55;;;1.45;;
4676;SDS011;2352;48.180;11.478;2023-05-07T15:49:21;1.23;;;1.23;;
4676;SDS011;2352;48.180;11.478;2023-05-07T15:52:24;0.93;;;0.93;;
4676;SDS011;2352;48.180;11.478;2023-05-07T15:55:28;1.15;;;1.15;;
4676;SDS011;2352;48.180;11.478;2023-05-07T15:58:33;1.52;;;1.42;;
4676;SDS011;2352;48.180;11.478;2023-05-07T16:01:37;1.00;;;1.00;;
4676;SDS011;2352;48.180;11.478;2023-05-07T16:04:41;1.17;;;1.08;;
4676;SDS011;2352;48.180;11.478;2023-05-07T16:07:44;1.42;;;1.30;;
4676;SDS011;2352;48.180;11.478;2023-05-07T16:10:47;1.45;;;1.35;;
4676;SDS011;2352;48.180;11.478;2023-05-07T16:13:51;1.75;;;1.65;;
4676;SDS011;2352;48.180;11.478;2023-05-07T16:16:55;1.65;;;1.55;;
4676;SDS011;2352;48.180;11.478;2023-05-07T16:19:58;1.48;;;1.33;;
4676;SDS011;2352;48.180;11.478;2023-05-07T16:23:02;2.30;;;1.60;;
4676;SDS011;2352;48.180;11.478;2023-05-07T16:26:05;2.30;;;1.50;;
4676;SDS011;2352;48.180;11.478;2023-05-07T16:29:09;1.45;;;1.30;;
4676;SDS011;2352;48.180;11.478;2023-05-07T16:32:12;1.23;;;1.13;;
4676;SDS011;2352;48.180;11.478;2023-05-07T16:35:15;1.40;;;1.33;;
4676;SDS011;2352;48.180;11.478;2023-05-07T16:38:18;1.55;;;1.40;;
4676;SDS011;2352;48.180;11.478;2023-05-07T16:41:21;1.50;;;1.40;;
4676;SDS011;2352;48.180;11.478;2023-05-07T16:44:25;4.93;;;2.03;;
4676;SDS011;2352;48.180;11.478;2023-05-07T16:47:28;1.25;;;1.15;;
4676;SDS011;2352;48.180;11.478;2023-05-07T16:50:31;1.27;;;1.17;;
4676;SDS011;2352;48.180;11.478;2023-05-07T16:53:34;1.20;;;1.10;;
4676;SDS011;2352;48.180;11.478;2023-05-07T16:56:37;2.20;;;1.40;;
4676;SDS011;2352;48.180;11.478;2023-05-07T16:59:43;1.30;;;1.20;;
4676;SDS011;2352;48.180;11.478;2023-05-07T17:02:46;4.10;;;3.90;;
4676;SDS011;2352;48.180;11.478;2023-05-07T17:05:49;5.22;;;4.93;;
4676;SDS011;2352;48.180;11.478;2023-05-07T17:08:53;8.48;;;8.18;;
4676;SDS011;2352;48.180;11.478;2023-05-07T17:11:56;3.50;;;3.30;;
4676;SDS011;2352;48.180;11.478;2023-05-07T17:15:00;4.00;;;3.55;;
4676;SDS011;2352;48.180;11.478;2023-05-07T17:18:03;4.60;;;4.30;;
4676;SDS011;2352;48.180;11.478;2023-05-07T17:21:07;18.25;;;17.15;;
4676;SDS011;2352;48.180;11.478;2023-05-07T17:24:09;5.00;;;4.70;;
4676;SDS011;2352;48.180;11.478;2023-05-07T17:27:13;6.63;;;6.30;;
4676;SDS011;2352;48.180;11.478;2023-05-07T17:30:17;8.85;;;3.15;;
4676;SDS011;2352;48.180;11.478;2023-05-07T17:33:20;1.90;;;1.80;;
4676;SDS011;2352;48.180;11.478;2023-05-07T17:36:23;2.00;;;1.73;;
4676;SDS011;2352;48.180;11.478;2023-05-07T17:39:26;1.58;;;1.48;;
4676;SDS011;2352;48.180;11.478;2023-05-07T17:42:29;8.38;;;7.88;;
4676;SDS011;2352;48.180;11.478;2023-05-07T17:45:34;4.07;;;3.88;;
4676;SDS011;2352;48.180;11.478;2023-05-07T17:48:37;3.00;;;2.80;;
4676;SDS011;2352;48.180;11.478;2023-05-07T17:51:40;3.20;;;3.00;;
4676;SDS011;2352;48.180;11.478;2023-05-07T17:54:54;1.80;;;1.70;;
4676;SDS011;2352;48.180;11.478;2023-05-07T17:57:57;1.75;;;1.42;;
4676;SDS011;2352;48.180;11.478;2023-05-07T18:01:02;27.10;;;15.10;;
4676;SDS011;2352;48.180;11.478;2023-05-07T18:04:05;1.80;;;1.70;;
4676;SDS011;2352;48.180;11.478;2023-05-07T18:07:08;1.45;;;1.35;;
4676;SDS011;2352;48.180;11.478;2023-05-07T18:10:11;1.92;;;1.83;;
4676;SDS011;2352;48.180;11.478;2023-05-07T18:13:14;1.77;;;1.67;;
4676;SDS011;2352;48.180;11.478;2023-05-07T18:16:19;1.92;;;1.83;;
4676;SDS011;2352;48.180;11.478;2023-05-07T18:19:22;2.33;;;2.13;;
4676;SDS011;2352;48.180;11.478;2023-05-07T18:22:26;1.67;;;1.58;;
4676;SDS011;2352;48.180;11.478;2023-05-07T18:25:29;2.13;;;1.92;;
4676;SDS011;2352;48.180;11.478;2023-05-07T18:28:31;1.50;;;1.40;;
4676;SDS011;2352;48.180;11.478;2023-05-07T18:31:36;2.47;;;2.28;;
4676;SDS011;2352;48.180;11.478;2023-05-07T18:34:39;1.80;;;1.70;;
4676;SDS011;2352;48.180;11.478;2023-05-07T18:37:41;2.20;;;2.10;;
4676;SDS011;2352;48.180;11.478;2023-05-07T18:40:44;2.65;;;2.15;;
4676;SDS011;2352;48.180;11.478;2023-05-07T18:43:47;2.65;;;2.00;;
4676;SDS011;2352;48.180;11.478;2023-05-07T18:46:52;1.77;;;1.67;;
4676;SDS011;2352;48.180;11.478;2023-05-07T18:49:55;1.92;;;1.83;;